createdAt,value
2019-01-22T00:00:19.870Z,37.50
2019-01-22T00:02:48.387Z,37.90
2019-01-22T00:05:16.971Z,36.90
2019-01-22T00:07:45.544Z,36.90
2019-01-22T00:10:16.800Z,38.47
2019-01-22T00:12:45.546Z,36.80
2019-01-22T00:15:14.731Z,38.00
2019-01-22T00:17:43.551Z,36.20
2019-01-22T00:20:13.572Z,37.60
2019-01-22T00:22:42.231Z,36.77
2019-01-22T00:25:12.370Z,35.97
2019-01-22T00:27:43.604Z,36.40
2019-01-22T00:30:21.212Z,38.43
2019-01-22T00:32:50.078Z,39.07
2019-01-22T00:35:18.653Z,34.93
2019-01-22T00:37:47.241Z,37.70
2019-01-22T00:40:19.787Z,36.50
2019-01-22T00:42:48.722Z,34.80
2019-01-22T00:45:17.402Z,37.40
2019-01-22T00:47:45.944Z,37.57
2019-01-22T00:50:16.862Z,36.37
2019-01-22T00:52:45.510Z,35.47
2019-01-22T00:55:17.247Z,36.50
2019-01-22T00:57:45.879Z,35.30
2019-01-22T01:00:23.585Z,35.70
2019-01-22T01:02:52.169Z,36.00
2019-01-22T01:05:20.857Z,34.47
2019-01-22T01:07:49.414Z,34.50
2019-01-22T01:10:18.407Z,34.63
2019-01-22T01:12:50.224Z,37.57
2019-01-22T01:15:19.255Z,36.73
2019-01-22T01:17:47.858Z,36.50
2019-01-22T01:20:19.188Z,37.10
2019-01-22T01:22:47.741Z,38.40
2019-01-22T01:25:18.501Z,37.17
2019-01-22T01:27:47.066Z,36.33
2019-01-22T01:30:18.180Z,36.67
2019-01-22T01:32:46.739Z,35.93
2019-01-22T01:35:15.373Z,36.07
2019-01-22T01:37:43.984Z,35.27
2019-01-22T01:40:14.621Z,36.47
2019-01-22T01:42:43.236Z,35.77
2019-01-22T01:45:11.973Z,35.17
2019-01-22T01:47:40.896Z,35.90
2019-01-22T01:50:12.288Z,36.10
2019-01-22T01:52:40.938Z,37.87
2019-01-22T01:55:10.974Z,36.60
2019-01-22T01:57:41.093Z,36.33
2019-01-22T02:00:17.915Z,36.23
2019-01-22T02:02:46.715Z,37.23
2019-01-22T02:05:15.452Z,36.27
2019-01-22T02:07:44.013Z,38.93
2019-01-22T02:10:15.056Z,35.60
2019-01-22T02:12:58.956Z,37.77
2019-01-22T02:15:48.570Z,36.70
2019-01-22T02:18:34.744Z,39.67
2019-01-22T02:21:18.274Z,37.00
2019-01-22T02:24:18.222Z,39.70
2019-01-22T02:27:01.615Z,37.20
2019-01-22T02:29:36.256Z,37.17
2019-01-22T02:32:24.805Z,37.77
2019-01-22T02:35:01.978Z,34.70
2019-01-22T02:38:01.846Z,36.20
2019-01-22T02:40:36.169Z,35.80
2019-01-22T02:43:27.474Z,35.50
2019-01-22T02:46:15.261Z,37.30
2019-01-22T02:48:49.919Z,37.37
2019-01-22T02:51:21.538Z,35.30
2019-01-22T02:53:56.073Z,36.27
2019-01-22T02:56:39.569Z,37.63
2019-01-22T02:59:32.135Z,34.33
2019-01-22T03:02:39.437Z,36.70
2019-01-22T03:05:22.916Z,34.53
2019-01-22T03:08:13.559Z,34.30
2019-01-22T03:10:45.341Z,36.83
2019-01-22T03:13:19.470Z,34.73
2019-01-22T03:16:24.203Z,35.93
2019-01-22T03:18:55.778Z,34.27
2019-01-22T03:21:27.592Z,35.17
2019-01-22T03:24:14.204Z,35.83
2019-01-22T03:27:08.438Z,36.40
2019-01-22T03:29:45.979Z,35.10
2019-01-22T03:32:26.254Z,34.60
2019-01-22T03:35:14.109Z,35.30
2019-01-22T03:38:14.139Z,35.40
2019-01-22T03:41:03.193Z,34.10
2019-01-22T03:43:43.591Z,32.97
2019-01-22T03:46:18.075Z,33.73
2019-01-22T03:49:07.375Z,34.30
2019-01-22T03:51:44.814Z,35.33
2019-01-22T03:54:31.344Z,35.30
2019-01-22T03:57:08.770Z,34.77
2019-01-22T03:59:37.394Z,35.10
2019-01-22T04:02:07.408Z,35.17
2019-01-22T04:04:35.931Z,35.53
2019-01-22T04:07:04.687Z,34.23
2019-01-22T04:09:35.943Z,34.57
2019-01-22T04:12:04.746Z,35.23
2019-01-22T04:14:33.566Z,33.20
2019-01-22T04:17:02.657Z,35.67
2019-01-22T04:19:31.380Z,33.17
2019-01-22T04:21:59.980Z,35.23
2019-01-22T04:24:34.404Z,34.53
2019-01-22T04:27:11.620Z,33.90
2019-01-22T04:29:55.523Z,33.80
2019-01-22T04:32:32.946Z,35.70
2019-01-22T04:35:16.144Z,32.47
2019-01-22T04:38:02.421Z,31.03
2019-01-22T04:40:36.686Z,34.23
2019-01-22T04:43:33.675Z,34.20
2019-01-22T04:46:14.385Z,33.40
2019-01-22T04:49:09.823Z,32.97
2019-01-22T04:51:44.742Z,31.90
2019-01-22T04:54:40.599Z,34.63
2019-01-22T04:57:15.284Z,34.10
2019-01-22T05:00:08.877Z,32.13
2019-01-22T05:02:56.842Z,35.30
2019-01-22T05:05:37.495Z,33.93
2019-01-22T05:08:20.763Z,32.30
2019-01-22T05:11:17.908Z,32.53
2019-01-22T05:13:52.444Z,32.03
2019-01-22T05:16:29.312Z,32.73
2019-01-22T05:19:06.389Z,34.43
2019-01-22T05:21:54.551Z,33.00
2019-01-22T05:24:43.878Z,34.10
2019-01-22T05:27:32.811Z,31.97
2019-01-22T05:30:33.118Z,34.40
2019-01-22T05:33:34.667Z,34.00
2019-01-22T05:36:33.546Z,32.63
2019-01-22T05:39:19.773Z,33.30
2019-01-22T05:42:10.479Z,34.20
2019-01-22T05:44:47.695Z,32.20
2019-01-22T05:47:31.032Z,33.10
2019-01-22T05:50:02.590Z,32.33
2019-01-22T05:52:40.114Z,32.97
2019-01-22T05:55:17.724Z,33.90
2019-01-22T05:57:49.405Z,35.10
2019-01-22T06:00:32.780Z,33.20
2019-01-22T06:03:02.809Z,34.40
2019-01-22T06:05:55.426Z,35.07
2019-01-22T06:08:48.191Z,31.20
2019-01-22T06:11:34.900Z,35.10
2019-01-22T06:14:27.163Z,32.40
2019-01-22T06:17:34.920Z,34.60
2019-01-22T06:20:19.882Z,33.80
2019-01-22T06:23:03.188Z,34.80
2019-01-22T06:25:49.498Z,34.00
2019-01-22T06:28:19.734Z,33.30
2019-01-22T06:31:12.217Z,33.10
2019-01-22T06:33:46.568Z,32.10
2019-01-22T06:36:20.972Z,33.27
2019-01-22T06:38:58.587Z,33.73
2019-01-22T06:41:41.987Z,32.77
2019-01-22T06:44:22.906Z,34.50
2019-01-22T06:46:54.646Z,31.00
2019-01-22T06:49:29.244Z,32.90
2019-01-22T06:52:33.727Z,34.33
2019-01-22T06:55:08.319Z,35.70
2019-01-22T06:57:48.741Z,35.60
2019-01-22T07:00:45.782Z,34.60
2019-01-22T07:03:22.547Z,32.43
2019-01-22T07:06:22.753Z,32.90
2019-01-22T07:08:57.441Z,33.90
2019-01-22T07:11:31.991Z,33.30
2019-01-22T07:14:15.908Z,32.23
2019-01-22T07:17:02.393Z,34.47
2019-01-22T07:19:48.811Z,37.03
2019-01-22T07:22:32.543Z,36.07
2019-01-22T07:25:18.952Z,32.87
2019-01-22T07:28:20.431Z,33.80
2019-01-22T07:31:05.899Z,33.77
2019-01-22T07:33:53.208Z,33.87
2019-01-22T07:36:33.746Z,31.97
2019-01-22T07:39:07.856Z,33.83
2019-01-22T07:41:51.618Z,32.83
2019-01-22T07:44:34.806Z,33.53
2019-01-22T07:47:21.121Z,31.67
2019-01-22T07:49:58.172Z,33.93
2019-01-22T07:52:44.409Z,31.60
2019-01-22T07:55:30.791Z,31.77
2019-01-22T07:58:05.464Z,33.47
2019-01-22T08:00:48.941Z,32.03
2019-01-22T08:03:54.550Z,32.30
2019-01-22T08:06:30.638Z,32.80
2019-01-22T08:09:08.027Z,34.40
2019-01-22T08:11:48.615Z,34.03
2019-01-22T08:14:32.130Z,33.17
2019-01-22T08:17:21.561Z,31.83
2019-01-22T08:20:02.103Z,34.90
2019-01-22T08:22:36.446Z,32.17
2019-01-22T08:25:28.722Z,31.40
2019-01-22T08:28:18.196Z,33.73
2019-01-22T08:30:55.456Z,34.10
2019-01-22T08:33:44.835Z,32.23
2019-01-22T08:36:49.342Z,33.80
2019-01-22T08:39:32.755Z,31.60
2019-01-22T08:42:12.940Z,33.43
2019-01-22T08:44:59.328Z,33.20
2019-01-22T08:47:50.185Z,32.20
2019-01-22T08:50:39.660Z,32.87
2019-01-22T08:53:11.271Z,35.00
2019-01-22T08:55:54.743Z,33.00
2019-01-22T08:58:44.042Z,31.10
2019-01-22T09:01:39.246Z,33.17
2019-01-22T09:04:33.148Z,31.67
2019-01-22T09:07:13.681Z,31.73
2019-01-22T09:10:13.889Z,31.07
2019-01-22T09:12:57.216Z,32.33
2019-01-22T09:15:56.073Z,29.57
2019-01-22T09:18:36.706Z,33.90
2019-01-22T09:21:29.226Z,32.50
2019-01-22T09:24:01.889Z,28.80
2019-01-22T09:26:42.152Z,31.67
2019-01-22T09:29:30.304Z,31.40
2019-01-22T09:32:15.670Z,30.80
2019-01-22T09:34:56.141Z,28.97
2019-01-22T09:37:28.078Z,29.80
2019-01-22T09:39:56.896Z,30.30
2019-01-22T09:42:25.465Z,30.27
2019-01-22T09:44:54.082Z,30.50
2019-01-22T09:47:22.613Z,29.90
2019-01-22T09:49:51.114Z,31.00
2019-01-22T09:52:19.645Z,28.80
2019-01-22T09:54:48.203Z,31.60
2019-01-22T09:57:16.716Z,28.77
2019-01-22T09:59:45.287Z,31.30
2019-01-22T10:02:16.926Z,29.77
2019-01-22T10:04:48.648Z,32.00
2019-01-22T10:07:18.857Z,30.80
2019-01-22T10:09:47.455Z,29.87
2019-01-22T10:12:15.885Z,30.80
2019-01-22T10:14:44.478Z,29.07
2019-01-22T10:17:14.492Z,29.10
2019-01-22T10:19:43.055Z,29.80
2019-01-22T10:22:11.703Z,30.43
2019-01-22T10:24:40.301Z,28.23
2019-01-22T10:27:08.833Z,26.47
2019-01-22T10:29:40.222Z,27.97
2019-01-22T10:32:08.815Z,26.63
2019-01-22T10:34:37.306Z,26.73
2019-01-22T10:37:05.900Z,29.47
2019-01-22T10:39:34.546Z,28.70
2019-01-22T10:42:04.797Z,28.40
2019-01-22T10:44:33.308Z,28.90
2019-01-22T10:47:01.859Z,28.27
2019-01-22T10:49:31.993Z,29.90
2019-01-22T10:52:00.479Z,29.10
2019-01-22T10:54:29.078Z,28.90
2019-01-22T10:56:57.681Z,29.00
2019-01-22T10:59:26.419Z,29.17
2019-01-22T11:01:54.953Z,29.90
2019-01-22T11:04:23.457Z,29.33
2019-01-22T11:06:52.979Z,27.27
2019-01-22T11:09:21.528Z,29.50
2019-01-22T11:11:50.030Z,27.93
2019-01-22T11:14:18.606Z,26.17
2019-01-22T11:16:47.720Z,27.57
2019-01-22T11:19:16.346Z,28.37
2019-01-22T11:21:44.973Z,27.57
2019-01-22T11:24:13.622Z,26.80
2019-01-22T11:26:42.108Z,25.27
2019-01-22T11:29:10.695Z,26.17
2019-01-22T11:31:39.195Z,25.13
2019-01-22T11:34:07.780Z,26.53
2019-01-22T11:36:36.381Z,24.30
2019-01-22T11:39:08.301Z,25.10
2019-01-22T11:41:36.882Z,26.23
2019-01-22T11:44:05.533Z,24.30
2019-01-22T11:46:34.077Z,24.80
2019-01-22T11:49:02.627Z,23.90
2019-01-22T11:51:31.162Z,27.07
2019-01-22T11:53:59.644Z,25.73
2019-01-22T11:56:29.053Z,24.90
2019-01-22T11:58:57.513Z,24.97
2019-01-22T12:01:25.983Z,23.67
2019-01-22T12:03:54.512Z,24.17
2019-01-22T12:06:24.134Z,26.03
2019-01-22T12:08:52.616Z,24.50
2019-01-22T12:11:21.177Z,24.00
2019-01-22T12:13:53.951Z,24.30
2019-01-22T12:16:20.133Z,22.10
2019-01-22T12:18:48.704Z,24.10
2019-01-22T12:21:19.972Z,23.80
2019-01-22T12:23:48.480Z,25.57
2019-01-22T12:26:16.978Z,24.57
2019-01-22T12:28:45.461Z,25.40
2019-01-22T12:31:13.951Z,26.10
2019-01-22T12:33:47.050Z,26.00
2019-01-22T12:36:15.600Z,25.40
2019-01-22T12:38:44.115Z,27.90
2019-01-22T12:41:12.673Z,26.10
2019-01-22T12:43:41.207Z,27.23
2019-01-22T12:46:09.760Z,27.10
2019-01-22T12:48:38.585Z,26.90
2019-01-22T12:51:07.161Z,27.07
2019-01-22T12:53:35.638Z,25.87
2019-01-22T12:56:05.817Z,26.00
2019-01-22T12:58:34.358Z,24.40
2019-01-22T13:01:02.842Z,27.50
2019-01-22T13:03:31.429Z,27.30
2019-01-22T13:06:00.117Z,26.40
2019-01-22T13:08:28.706Z,33.13
2019-01-22T13:10:57.293Z,27.07
2019-01-22T13:13:27.457Z,25.77
2019-01-22T13:15:57.541Z,26.43
2019-01-22T13:18:26.114Z,28.70
2019-01-22T13:20:54.961Z,25.80
2019-01-22T13:23:23.598Z,26.23
2019-01-22T13:25:53.649Z,25.83
2019-01-22T13:28:22.218Z,26.77
2019-01-22T13:30:50.808Z,26.60
2019-01-22T13:33:21.988Z,25.97
2019-01-22T13:35:52.094Z,26.60
2019-01-22T13:38:23.566Z,26.47
2019-01-22T13:40:52.025Z,26.60
2019-01-22T13:43:20.712Z,25.07
2019-01-22T13:45:49.353Z,26.70
2019-01-22T13:48:17.879Z,25.27
2019-01-22T13:50:46.440Z,23.53
2019-01-22T13:53:15.058Z,24.27
2019-01-22T13:55:43.874Z,23.87
2019-01-22T13:58:12.946Z,23.47
2019-01-22T14:00:41.561Z,24.90
2019-01-22T14:03:10.197Z,24.50
2019-01-22T14:05:38.820Z,25.90
2019-01-22T14:08:07.668Z,23.17
2019-01-22T14:10:36.252Z,23.70
2019-01-22T14:13:05.208Z,22.73
2019-01-22T14:15:38.974Z,22.60
2019-01-22T14:18:08.249Z,24.20
2019-01-22T14:20:38.482Z,23.53
2019-01-22T14:23:07.061Z,21.50
2019-01-22T14:25:38.508Z,21.83
2019-01-22T14:28:07.151Z,22.17
2019-01-22T14:30:39.436Z,23.40
2019-01-22T14:33:08.052Z,23.47
2019-01-22T14:35:36.733Z,24.30
2019-01-22T14:38:05.390Z,23.97
2019-01-22T14:40:33.848Z,22.83
2019-01-22T14:43:02.436Z,22.27
2019-01-22T14:45:31.038Z,22.50
2019-01-22T14:47:59.665Z,24.07
2019-01-22T14:50:30.750Z,23.83
2019-01-22T14:52:59.658Z,23.27
2019-01-22T14:55:28.632Z,26.50
2019-01-22T14:57:57.224Z,23.30
2019-01-22T15:00:28.125Z,21.87
2019-01-22T15:02:57.389Z,22.50
2019-01-22T15:05:26.234Z,22.67
2019-01-22T15:07:54.836Z,21.70
2019-01-22T15:10:23.454Z,22.60
2019-01-22T15:12:54.778Z,23.87
2019-01-22T15:15:23.308Z,23.77
2019-01-22T15:17:51.898Z,23.60
2019-01-22T15:20:22.228Z,22.63
2019-01-22T15:22:50.787Z,23.83
2019-01-22T15:25:19.370Z,23.70
2019-01-22T15:27:47.952Z,24.10
2019-01-22T15:30:19.301Z,23.20
2019-01-22T15:32:47.905Z,25.23
2019-01-22T15:35:16.358Z,23.87
2019-01-22T15:37:45.010Z,24.63
2019-01-22T15:40:19.615Z,25.83
2019-01-22T15:42:48.166Z,23.90
2019-01-22T15:45:16.735Z,23.67
2019-01-22T15:47:45.317Z,22.57
2019-01-22T15:50:18.537Z,24.77
2019-01-22T15:52:47.151Z,24.97
2019-01-22T15:55:18.978Z,23.53
2019-01-22T15:57:47.426Z,25.63
2019-01-22T16:00:24.015Z,25.20
2019-01-22T16:02:52.545Z,23.43
2019-01-22T16:05:21.132Z,23.87
2019-01-22T16:07:49.766Z,24.00
2019-01-22T16:10:18.359Z,25.70
2019-01-22T16:12:46.897Z,24.97
2019-01-22T16:15:20.129Z,23.70
2019-01-22T16:17:49.107Z,24.70
2019-01-22T16:20:23.665Z,23.50
2019-01-22T16:22:52.305Z,25.17
2019-01-22T16:25:22.112Z,24.83
2019-01-22T16:27:50.758Z,24.93
2019-01-22T16:30:26.115Z,24.67
2019-01-22T16:32:54.810Z,25.17
2019-01-22T16:35:24.599Z,24.20
2019-01-22T16:37:53.231Z,23.57
2019-01-22T16:40:21.807Z,24.70
2019-01-22T16:42:50.885Z,25.90
2019-01-22T16:45:25.380Z,23.57
2019-01-22T16:47:54.014Z,24.70
2019-01-22T16:50:22.536Z,24.30
2019-01-22T16:52:51.102Z,24.00
2019-01-22T16:55:26.362Z,25.53
2019-01-22T16:57:54.985Z,23.93
2019-01-22T17:00:26.332Z,25.10
2019-01-22T17:02:54.952Z,25.27
2019-01-22T17:05:23.803Z,23.90
2019-01-22T17:07:52.407Z,23.83
2019-01-22T17:10:21.482Z,27.27
2019-01-22T17:12:50.712Z,25.60
2019-01-22T17:15:19.641Z,26.43
2019-01-22T17:17:48.651Z,28.60
2019-01-22T17:20:26.301Z,25.50
2019-01-22T17:22:54.909Z,25.53
2019-01-22T17:25:23.989Z,23.67
2019-01-22T17:27:52.571Z,25.27
2019-01-22T17:30:22.938Z,24.53
2019-01-22T17:32:53.209Z,26.33
2019-01-22T17:35:21.813Z,26.47
2019-01-22T17:37:50.363Z,26.20
2019-01-22T17:40:19.003Z,25.90
2019-01-22T17:42:47.633Z,25.83
2019-01-22T17:45:16.231Z,25.93
2019-01-22T17:47:44.946Z,26.10
2019-01-22T17:50:15.604Z,26.83
2019-01-22T17:52:44.298Z,27.40
2019-01-22T17:55:13.517Z,26.80
2019-01-22T17:57:42.343Z,27.10
2019-01-22T18:00:17.518Z,27.87
2019-01-22T18:02:46.006Z,28.47
2019-01-22T18:05:16.410Z,25.40
2019-01-22T18:07:44.883Z,27.20
2019-01-22T18:10:15.805Z,26.53
2019-01-22T18:12:44.376Z,29.27
2019-01-22T18:15:15.453Z,29.07
2019-01-22T18:17:44.057Z,28.07
2019-01-22T18:20:15.731Z,28.27
2019-01-22T18:22:44.331Z,27.77
2019-01-22T18:25:12.917Z,29.37
2019-01-22T18:27:41.565Z,28.77
2019-01-22T18:30:13.300Z,27.10
2019-01-22T18:32:41.855Z,28.47
2019-01-22T18:35:13.198Z,28.97
2019-01-22T18:37:41.777Z,26.93
2019-01-22T18:40:12.988Z,27.97
2019-01-22T18:42:41.513Z,30.40
2019-01-22T18:45:12.955Z,28.70
2019-01-22T18:47:41.506Z,27.97
2019-01-22T18:50:13.069Z,29.83
2019-01-22T18:52:41.892Z,26.80
2019-01-22T18:55:10.519Z,28.17
2019-01-22T18:57:39.094Z,28.23
2019-01-22T19:00:10.741Z,27.80
2019-01-22T19:02:39.376Z,28.27
2019-01-22T19:05:09.222Z,28.80
2019-01-22T19:07:37.994Z,27.73
2019-01-22T19:10:09.850Z,27.27
2019-01-22T19:12:38.564Z,27.90
2019-01-22T19:15:10.546Z,27.30
2019-01-22T19:17:39.153Z,28.50
2019-01-22T19:20:09.321Z,27.70
2019-01-22T19:22:38.332Z,29.60
2019-01-22T19:25:12.461Z,28.90
2019-01-22T19:27:42.943Z,26.90
2019-01-22T19:30:17.216Z,28.70
2019-01-22T19:32:45.773Z,26.93
2019-01-22T19:35:14.493Z,26.57
2019-01-22T19:37:43.384Z,28.70
2019-01-22T19:40:16.528Z,24.53
2019-01-22T19:42:45.582Z,26.93
2019-01-22T19:45:19.156Z,27.23
2019-01-22T19:47:47.661Z,27.97
2019-01-22T19:50:17.094Z,27.90
2019-01-22T19:52:45.690Z,27.43
2019-01-22T19:55:14.362Z,26.10
2019-01-22T19:57:42.963Z,27.10
2019-01-22T20:00:26.083Z,26.50
2019-01-22T20:02:54.723Z,26.27
2019-01-22T20:05:23.580Z,26.60
2019-01-22T20:07:52.204Z,24.77
2019-01-22T20:10:20.953Z,25.53
2019-01-22T20:12:49.536Z,25.80
2019-01-22T20:15:20.546Z,24.60
2019-01-22T20:17:49.290Z,25.00
2019-01-22T20:20:19.482Z,25.90
2019-01-22T20:22:49.227Z,25.70
2019-01-22T20:25:18.134Z,26.33
2019-01-22T20:27:48.261Z,26.27
2019-01-22T20:30:22.945Z,25.93
2019-01-22T20:32:51.546Z,25.93
2019-01-22T20:35:20.177Z,25.40
2019-01-22T20:37:48.801Z,23.80
2019-01-22T20:40:17.335Z,26.00
2019-01-22T20:42:45.885Z,25.33
2019-01-22T20:45:16.858Z,24.50
2019-01-22T20:47:45.503Z,25.93
2019-01-22T20:50:19.366Z,24.70
2019-01-22T20:52:45.679Z,25.07
2019-01-22T20:55:16.548Z,24.33
2019-01-22T20:57:45.120Z,26.57
2019-01-22T21:00:16.551Z,26.80
2019-01-22T21:02:45.292Z,23.93
2019-01-22T21:05:19.636Z,27.97
2019-01-22T21:07:48.339Z,25.40
2019-01-22T21:10:21.699Z,25.40
2019-01-22T21:12:50.271Z,27.17
2019-01-22T21:15:18.923Z,26.40
2019-01-22T21:17:47.521Z,27.43
2019-01-22T21:20:18.537Z,26.93
2019-01-22T21:22:47.111Z,25.60
2019-01-22T21:25:17.960Z,26.40
2019-01-22T21:27:46.442Z,26.10
2019-01-22T21:30:23.974Z,26.07
2019-01-22T21:32:52.570Z,28.30
2019-01-22T21:35:21.202Z,26.33
2019-01-22T21:37:49.914Z,27.73
2019-01-22T21:40:19.246Z,27.83
2019-01-22T21:42:48.097Z,27.90
2019-01-22T21:45:21.719Z,27.30
2019-01-22T21:47:50.310Z,26.17
2019-01-22T21:50:18.984Z,24.50
2019-01-22T21:52:47.803Z,27.57
2019-01-22T21:55:19.119Z,29.10
2019-01-22T21:57:47.710Z,27.17
2019-01-22T22:00:18.397Z,28.93
2019-01-22T22:02:47.029Z,28.60
2019-01-22T22:05:16.906Z,32.20
2019-01-22T22:07:45.534Z,28.47
2019-01-22T22:10:16.403Z,31.40
2019-01-22T22:12:44.931Z,27.23
2019-01-22T22:15:16.334Z,32.10
2019-01-22T22:17:45.155Z,31.70
2019-01-22T22:20:15.774Z,30.30
2019-01-22T22:22:44.744Z,32.50
2019-01-22T22:25:15.693Z,29.57
2019-01-22T22:27:44.257Z,32.50
2019-01-22T22:30:16.031Z,31.47
2019-01-22T22:32:44.673Z,30.67
2019-01-22T22:35:13.405Z,33.13
2019-01-22T22:37:42.156Z,33.80
2019-01-22T22:40:14.092Z,33.80
2019-01-22T22:42:42.682Z,33.10
2019-01-22T22:45:13.967Z,34.37
2019-01-22T22:47:42.568Z,33.27
2019-01-22T22:50:14.179Z,34.53
2019-01-22T22:52:42.761Z,33.57
2019-01-22T22:55:11.356Z,35.35
2019-01-22T22:57:39.985Z,33.87
2019-01-22T23:00:27.901Z,33.00
2019-01-22T23:02:56.749Z,31.90
2019-01-22T23:05:25.444Z,30.37
2019-01-22T23:07:54.013Z,32.87
2019-01-22T23:10:22.570Z,33.70
2019-01-22T23:12:51.369Z,33.33
2019-01-22T23:15:19.916Z,33.37
2019-01-22T23:17:48.810Z,35.90
2019-01-22T23:20:17.366Z,32.10
2019-01-22T23:22:46.279Z,32.77
2019-01-22T23:25:14.950Z,34.07
2019-01-22T23:27:43.579Z,33.87
2019-01-22T23:30:14.933Z,32.33
2019-01-22T23:32:43.412Z,34.40
2019-01-22T23:35:12.086Z,33.50
2019-01-22T23:37:40.643Z,36.10
2019-01-22T23:40:11.799Z,34.13
2019-01-22T23:42:40.371Z,36.17
2019-01-22T23:45:10.963Z,34.20
2019-01-22T23:47:39.577Z,33.30
2019-01-22T23:50:13.655Z,35.70
2019-01-22T23:52:42.233Z,35.47
2019-01-22T23:55:12.152Z,34.00
2019-01-22T23:57:40.774Z,36.27
